createdAt,value
2019-04-07T00:00:15.334Z,997.18
2019-04-07T00:01:15.814Z,997.23
2019-04-07T00:02:15.440Z,997.21
2019-04-07T00:03:15.224Z,997.20
2019-04-07T00:04:15.826Z,997.21
2019-04-07T00:05:15.182Z,997.21
2019-04-07T00:06:15.662Z,997.20
2019-04-07T00:07:15.164Z,997.19
2019-04-07T00:08:15.181Z,997.18
2019-04-07T00:09:15.383Z,997.19
2019-04-07T00:10:15.506Z,997.18
2019-04-07T00:11:15.133Z,997.19
2019-04-07T00:12:15.099Z,997.18
2019-04-07T00:13:15.097Z,997.15
2019-04-07T00:14:15.078Z,997.19
2019-04-07T00:15:15.525Z,997.17
2019-04-07T00:16:15.693Z,997.17
2019-04-07T00:17:15.091Z,997.17
2019-04-07T00:18:15.155Z,997.18
2019-04-07T00:19:15.630Z,997.17
2019-04-07T00:20:15.024Z,997.19
2019-04-07T00:21:15.255Z,997.18
2019-04-07T00:22:15.371Z,997.16
2019-04-07T00:23:15.018Z,997.15
2019-04-07T00:24:14.984Z,997.14
2019-04-07T00:25:14.967Z,997.19
2019-04-07T00:26:14.968Z,997.13
2019-04-07T00:27:14.982Z,997.12
2019-04-07T00:28:14.926Z,997.14
2019-04-07T00:29:15.545Z,997.11
2019-04-07T00:30:15.513Z,997.15
2019-04-07T00:31:14.910Z,997.13
2019-04-07T00:32:14.880Z,997.14
2019-04-07T00:33:14.891Z,997.14
2019-04-07T00:34:15.431Z,997.13
2019-04-07T00:35:23.418Z,997.12
2019-04-07T00:36:16.535Z,997.16
2019-04-07T00:37:15.529Z,997.15
2019-04-07T00:38:15.063Z,997.17
2019-04-07T00:39:14.866Z,997.13
2019-04-07T00:40:14.808Z,997.12
2019-04-07T00:41:14.833Z,997.19
2019-04-07T00:42:14.768Z,997.11
2019-04-07T00:43:15.368Z,997.08
2019-04-07T00:44:14.766Z,997.09
2019-04-07T00:45:15.083Z,997.11
2019-04-07T00:46:14.725Z,997.15
2019-04-07T00:47:15.255Z,997.11
2019-04-07T00:48:14.698Z,997.16
2019-04-07T00:49:14.895Z,997.12
2019-04-07T00:50:15.305Z,997.13
2019-04-07T00:51:14.681Z,997.13
2019-04-07T00:52:14.684Z,997.14
2019-04-07T00:53:14.650Z,997.12
2019-04-07T00:54:15.109Z,997.19
2019-04-07T00:55:14.623Z,997.17
2019-04-07T00:56:14.666Z,997.16
2019-04-07T00:57:14.844Z,997.16
2019-04-07T00:58:14.847Z,997.21
2019-04-07T00:59:14.597Z,997.22
2019-04-07T01:00:16.597Z,997.22
2019-04-07T01:01:15.173Z,997.19
2019-04-07T01:02:14.555Z,997.23
2019-04-07T01:03:14.855Z,997.21
2019-04-07T01:04:14.526Z,997.23
2019-04-07T01:05:14.794Z,997.22
2019-04-07T01:06:14.515Z,997.27
2019-04-07T01:07:14.538Z,997.26
2019-04-07T01:08:15.464Z,997.26
2019-04-07T01:09:14.540Z,997.25
2019-04-07T01:10:15.094Z,997.27
2019-04-07T01:11:14.450Z,997.29
2019-04-07T01:12:14.921Z,997.28
2019-04-07T01:13:14.499Z,997.29
2019-04-07T01:14:14.433Z,997.34
2019-04-07T01:15:15.071Z,997.27
2019-04-07T01:16:14.656Z,997.29
2019-04-07T01:17:14.947Z,997.28
2019-04-07T01:18:14.372Z,997.30
2019-04-07T01:19:14.670Z,997.32
2019-04-07T01:20:14.376Z,997.35
2019-04-07T01:21:14.944Z,997.34
2019-04-07T01:22:14.489Z,997.35
2019-04-07T01:23:14.353Z,997.37
2019-04-07T01:24:14.485Z,997.40
2019-04-07T01:25:14.764Z,997.37
2019-04-07T01:26:14.288Z,997.39
2019-04-07T01:27:14.671Z,997.37
2019-04-07T01:28:14.773Z,997.41
2019-04-07T01:29:14.725Z,997.38
2019-04-07T01:30:14.998Z,997.38
2019-04-07T01:31:14.383Z,997.40
2019-04-07T01:32:14.781Z,997.36
2019-04-07T01:33:14.267Z,997.39
2019-04-07T01:34:14.194Z,997.38
2019-04-07T01:35:14.625Z,997.36
2019-04-07T01:36:14.173Z,997.42
2019-04-07T01:37:14.160Z,997.41
2019-04-07T01:38:14.639Z,997.40
2019-04-07T01:39:14.137Z,997.40
2019-04-07T01:40:14.481Z,997.39
2019-04-07T01:41:14.192Z,997.39
2019-04-07T01:42:14.739Z,997.40
2019-04-07T01:43:14.094Z,997.45
2019-04-07T01:44:14.425Z,997.48
2019-04-07T01:45:14.070Z,997.48
2019-04-07T01:46:14.238Z,997.47
2019-04-07T01:47:14.081Z,997.52
2019-04-07T01:48:14.037Z,997.49
2019-04-07T01:49:14.041Z,997.50
2019-04-07T01:50:14.344Z,997.52
2019-04-07T01:51:14.524Z,997.52
2019-04-07T01:52:13.989Z,997.48
2019-04-07T01:53:14.818Z,997.47
2019-04-07T01:54:14.008Z,997.47
2019-04-07T01:55:14.628Z,997.49
2019-04-07T01:56:14.103Z,997.50
2019-04-07T01:57:14.626Z,997.50
2019-04-07T01:58:13.931Z,997.50
2019-04-07T01:59:14.464Z,997.51
2019-04-07T02:00:13.903Z,997.46
2019-04-07T02:01:14.175Z,997.49
2019-04-07T02:02:13.883Z,997.49
2019-04-07T02:03:13.878Z,997.49
2019-04-07T02:04:13.881Z,997.46
2019-04-07T02:05:14.356Z,997.41
2019-04-07T02:06:13.907Z,997.42
2019-04-07T02:07:13.863Z,997.42
2019-04-07T02:08:14.534Z,997.43
2019-04-07T02:09:13.854Z,997.43
2019-04-07T02:10:13.807Z,997.37
2019-04-07T02:11:13.805Z,997.38
2019-04-07T02:12:13.781Z,997.39
2019-04-07T02:13:13.789Z,997.40
2019-04-07T02:14:13.811Z,997.38
2019-04-07T02:15:13.910Z,997.45
2019-04-07T02:16:13.752Z,997.43
2019-04-07T02:17:13.944Z,997.42
2019-04-07T02:18:13.710Z,997.41
2019-04-07T02:19:14.045Z,997.41
2019-04-07T02:20:13.686Z,997.42
2019-04-07T02:21:14.256Z,997.44
2019-04-07T02:22:13.681Z,997.42
2019-04-07T02:23:13.664Z,997.40
2019-04-07T02:24:13.693Z,997.39
2019-04-07T02:25:14.006Z,997.42
2019-04-07T02:26:13.666Z,997.41
2019-04-07T02:27:14.049Z,997.38
2019-04-07T02:28:13.812Z,997.38
2019-04-07T02:29:13.822Z,997.38
2019-04-07T02:30:14.506Z,997.39
2019-04-07T02:31:13.673Z,997.40
2019-04-07T02:32:13.551Z,997.35
2019-04-07T02:33:14.553Z,997.35
2019-04-07T02:34:13.599Z,997.36
2019-04-07T02:35:14.228Z,997.37
2019-04-07T02:36:22.694Z,997.37
2019-04-07T02:37:14.496Z,997.34
2019-04-07T02:38:17.059Z,997.33
2019-04-07T02:39:13.490Z,997.34
2019-04-07T02:40:13.760Z,997.34
2019-04-07T02:41:13.454Z,997.35
2019-04-07T02:42:13.438Z,997.31
2019-04-07T02:43:13.453Z,997.32
2019-04-07T02:44:13.560Z,997.35
2019-04-07T02:45:13.407Z,997.35
2019-04-07T02:46:13.405Z,997.35
2019-04-07T02:47:13.715Z,997.39
2019-04-07T02:48:13.865Z,997.36
2019-04-07T02:49:14.155Z,997.37
2019-04-07T02:50:14.088Z,997.34
2019-04-07T02:51:13.368Z,997.36
2019-04-07T02:52:14.481Z,997.34
2019-04-07T02:53:13.523Z,997.36
2019-04-07T02:54:22.793Z,997.35
2019-04-07T02:55:14.321Z,997.35
2019-04-07T02:56:13.473Z,997.35
2019-04-07T02:57:13.305Z,997.36
2019-04-07T02:58:13.701Z,997.38
2019-04-07T02:59:14.423Z,997.38
2019-04-07T03:00:13.961Z,997.39
2019-04-07T03:01:13.691Z,997.41
2019-04-07T03:02:14.208Z,997.41
2019-04-07T03:03:14.053Z,997.40
2019-04-07T03:04:13.214Z,997.42
2019-04-07T03:05:13.806Z,997.41
2019-04-07T03:06:26.260Z,997.43
2019-04-07T03:07:14.172Z,997.45
2019-04-07T03:08:13.188Z,997.45
2019-04-07T03:09:13.140Z,997.49
2019-04-07T03:10:13.135Z,997.47
2019-04-07T03:11:13.753Z,997.51
2019-04-07T03:12:13.770Z,997.48
2019-04-07T03:13:13.102Z,997.48
2019-04-07T03:14:13.099Z,997.49
2019-04-07T03:15:13.135Z,997.47
2019-04-07T03:16:13.130Z,997.52
2019-04-07T03:17:13.945Z,997.48
2019-04-07T03:18:13.061Z,997.50
2019-04-07T03:19:13.249Z,997.51
2019-04-07T03:20:13.029Z,997.59
2019-04-07T03:21:13.184Z,997.57
2019-04-07T03:22:13.177Z,997.56
2019-04-07T03:23:13.018Z,997.60
2019-04-07T03:24:12.982Z,997.60
2019-04-07T03:25:13.247Z,997.60
2019-04-07T03:26:13.348Z,997.62
2019-04-07T03:27:13.481Z,997.59
2019-04-07T03:28:12.947Z,997.57
2019-04-07T03:29:13.996Z,997.56
2019-04-07T03:30:13.726Z,997.64
2019-04-07T03:31:14.735Z,997.59
2019-04-07T03:32:18.279Z,997.63
2019-04-07T03:33:16.008Z,997.62
2019-04-07T03:34:14.771Z,997.62
2019-04-07T03:35:15.030Z,997.63
2019-04-07T03:36:18.033Z,997.67
2019-04-07T03:37:25.630Z,997.64
2019-04-07T03:38:13.932Z,997.67
2019-04-07T03:39:13.051Z,997.65
2019-04-07T03:40:13.812Z,997.62
2019-04-07T03:41:13.495Z,997.62
2019-04-07T03:42:12.802Z,997.61
2019-04-07T03:43:13.444Z,997.64
2019-04-07T03:44:12.910Z,997.66
2019-04-07T03:45:13.552Z,997.66
2019-04-07T03:46:12.745Z,997.69
2019-04-07T03:47:12.737Z,997.65
2019-04-07T03:48:13.696Z,997.68
2019-04-07T03:49:13.473Z,997.68
2019-04-07T03:50:12.704Z,997.68
2019-04-07T03:51:12.726Z,997.69
2019-04-07T03:52:12.681Z,997.65
2019-04-07T03:53:12.654Z,997.67
2019-04-07T03:54:12.648Z,997.65
2019-04-07T03:55:13.128Z,997.67
2019-04-07T03:56:13.423Z,997.65
2019-04-07T03:57:13.157Z,997.66
2019-04-07T03:58:12.641Z,997.70
2019-04-07T03:59:12.959Z,997.66
2019-04-07T04:00:12.615Z,997.65
2019-04-07T04:01:13.621Z,997.67
2019-04-07T04:02:12.569Z,997.69
2019-04-07T04:03:12.905Z,997.68
2019-04-07T04:04:12.598Z,997.68
2019-04-07T04:05:12.536Z,997.71
2019-04-07T04:06:12.817Z,997.66
2019-04-07T04:07:22.582Z,997.69
2019-04-07T04:08:13.976Z,997.66
2019-04-07T04:09:13.895Z,997.69
2019-04-07T04:10:12.481Z,997.68
2019-04-07T04:11:12.507Z,997.68
2019-04-07T04:12:12.454Z,997.67
2019-04-07T04:13:12.451Z,997.67
2019-04-07T04:14:13.367Z,997.68
2019-04-07T04:15:12.412Z,997.65
2019-04-07T04:16:12.751Z,997.67
2019-04-07T04:17:12.978Z,997.64
2019-04-07T04:18:12.380Z,997.65
2019-04-07T04:19:12.993Z,997.62
2019-04-07T04:20:12.915Z,997.61
2019-04-07T04:21:12.410Z,997.60
2019-04-07T04:22:12.798Z,997.68
2019-04-07T04:23:12.706Z,997.69
2019-04-07T04:24:12.373Z,997.67
2019-04-07T04:25:12.633Z,997.68
2019-04-07T04:26:12.985Z,997.72
2019-04-07T04:27:12.876Z,997.74
2019-04-07T04:28:12.273Z,997.72
2019-04-07T04:29:12.345Z,997.71
2019-04-07T04:30:12.604Z,997.67
2019-04-07T04:31:12.989Z,997.73
2019-04-07T04:32:12.233Z,997.71
2019-04-07T04:33:12.397Z,997.75
2019-04-07T04:34:12.220Z,997.76
2019-04-07T04:35:12.189Z,997.77
2019-04-07T04:36:12.195Z,997.75
2019-04-07T04:37:12.710Z,997.74
2019-04-07T04:38:12.271Z,997.78
2019-04-07T04:39:13.047Z,997.78
2019-04-07T04:40:12.141Z,997.76
2019-04-07T04:41:12.130Z,997.81
2019-04-07T04:42:12.134Z,997.80
2019-04-07T04:43:12.174Z,997.79
2019-04-07T04:44:12.268Z,997.82
2019-04-07T04:45:12.119Z,997.80
2019-04-07T04:46:12.737Z,997.81
2019-04-07T04:47:12.518Z,997.84
2019-04-07T04:48:12.094Z,997.79
2019-04-07T04:49:12.038Z,997.79
2019-04-07T04:50:12.904Z,997.83
2019-04-07T04:51:13.014Z,997.84
2019-04-07T04:52:12.055Z,997.84
2019-04-07T04:53:12.552Z,997.82
2019-04-07T04:54:12.610Z,997.88
2019-04-07T04:55:11.967Z,997.86
2019-04-07T04:56:11.966Z,997.88
2019-04-07T04:57:11.965Z,997.88
2019-04-07T04:58:12.668Z,997.89
2019-04-07T04:59:12.761Z,997.86
2019-04-07T05:00:12.257Z,997.80
2019-04-07T05:01:11.921Z,997.89
2019-04-07T05:02:12.219Z,997.90
2019-04-07T05:03:12.665Z,997.92
2019-04-07T05:04:12.604Z,997.89
2019-04-07T05:05:12.470Z,997.91
2019-04-07T05:06:11.953Z,997.92
2019-04-07T05:07:12.452Z,997.90
2019-04-07T05:08:12.773Z,997.97
2019-04-07T05:09:12.315Z,997.98
2019-04-07T05:10:12.254Z,997.98
2019-04-07T05:11:12.393Z,998.04
2019-04-07T05:12:11.782Z,998.05
2019-04-07T05:13:11.949Z,998.05
2019-04-07T05:14:11.778Z,997.96
2019-04-07T05:15:12.018Z,998.03
2019-04-07T05:16:11.892Z,998.00
2019-04-07T05:17:11.740Z,998.02
2019-04-07T05:18:12.027Z,998.03
2019-04-07T05:19:11.705Z,998.04
2019-04-07T05:20:12.349Z,998.03
2019-04-07T05:21:11.859Z,998.03
2019-04-07T05:22:12.489Z,998.08
2019-04-07T05:23:11.657Z,998.05
2019-04-07T05:24:11.658Z,998.03
2019-04-07T05:25:12.045Z,998.04
2019-04-07T05:26:11.671Z,998.00
2019-04-07T05:27:11.626Z,998.04
2019-04-07T05:28:12.351Z,998.07
2019-04-07T05:29:11.593Z,998.06
2019-04-07T05:30:12.317Z,998.06
2019-04-07T05:31:12.287Z,998.09
2019-04-07T05:32:12.225Z,998.15
2019-04-07T05:33:12.100Z,998.13
2019-04-07T05:34:15.534Z,998.14
2019-04-07T05:35:13.204Z,998.19
2019-04-07T05:36:12.203Z,998.16
2019-04-07T05:37:11.545Z,998.20
2019-04-07T05:38:11.508Z,998.17
2019-04-07T05:39:11.847Z,998.15
2019-04-07T05:40:11.474Z,998.15
2019-04-07T05:41:11.788Z,998.21
2019-04-07T05:42:11.458Z,998.21
2019-04-07T05:43:11.878Z,998.30
2019-04-07T05:44:11.447Z,998.29
2019-04-07T05:45:11.612Z,998.30
2019-04-07T05:46:11.403Z,998.28
2019-04-07T05:47:13.719Z,998.36
2019-04-07T05:48:11.431Z,998.37
2019-04-07T05:49:12.009Z,998.36
2019-04-07T05:50:11.394Z,998.36
2019-04-07T05:51:11.367Z,998.35
2019-04-07T05:52:11.343Z,998.41
2019-04-07T05:53:14.376Z,998.40
2019-04-07T05:54:12.480Z,998.41
2019-04-07T05:55:12.489Z,998.40
2019-04-07T05:56:11.296Z,998.36
2019-04-07T05:57:11.887Z,998.36
2019-04-07T05:58:11.978Z,998.38
2019-04-07T05:59:13.072Z,998.34
2019-04-07T06:00:14.593Z,998.38
2019-04-07T06:01:12.892Z,998.39
2019-04-07T06:02:11.263Z,998.40
2019-04-07T06:03:11.288Z,998.41
2019-04-07T06:04:16.942Z,998.42
2019-04-07T06:05:12.245Z,998.45
2019-04-07T06:06:11.494Z,998.41
2019-04-07T06:07:11.186Z,998.45
2019-04-07T06:08:22.086Z,998.40
2019-04-07T06:09:12.158Z,998.43
2019-04-07T06:10:11.139Z,998.40
2019-04-07T06:11:11.449Z,998.42
2019-04-07T06:12:11.922Z,998.41
2019-04-07T06:13:12.930Z,998.39
2019-04-07T06:14:11.544Z,998.38
2019-04-07T06:15:11.718Z,998.40
2019-04-07T06:16:11.084Z,998.41
2019-04-07T06:17:11.064Z,998.43
2019-04-07T06:18:11.774Z,998.41
2019-04-07T06:19:11.698Z,998.38
2019-04-07T06:20:14.240Z,998.34
2019-04-07T06:21:14.138Z,998.37
2019-04-07T06:22:11.118Z,998.37
2019-04-07T06:23:11.655Z,998.37
2019-04-07T06:24:11.334Z,998.42
2019-04-07T06:25:11.165Z,998.38
2019-04-07T06:26:11.864Z,998.36
2019-04-07T06:27:11.043Z,998.36
2019-04-07T06:28:10.934Z,998.34
2019-04-07T06:29:11.664Z,998.39
2019-04-07T06:30:10.961Z,998.39
2019-04-07T06:31:10.898Z,998.30
2019-04-07T06:32:11.241Z,998.37
2019-04-07T06:33:11.201Z,998.42
2019-04-07T06:34:12.103Z,998.42
2019-04-07T06:35:13.290Z,998.41
2019-04-07T06:36:11.519Z,998.42
2019-04-07T06:37:10.847Z,998.46
2019-04-07T06:38:10.834Z,998.46
2019-04-07T06:39:11.026Z,998.46
2019-04-07T06:40:11.160Z,998.42
2019-04-07T06:41:11.328Z,998.48
2019-04-07T06:42:10.797Z,998.48
2019-04-07T06:43:10.775Z,998.50
2019-04-07T06:44:13.737Z,998.49
2019-04-07T06:45:11.963Z,998.51
2019-04-07T06:46:10.734Z,998.53
2019-04-07T06:47:10.726Z,998.53
2019-04-07T06:48:11.428Z,998.53
2019-04-07T06:49:12.360Z,998.50
2019-04-07T06:50:14.197Z,998.47
2019-04-07T06:51:10.717Z,998.49
2019-04-07T06:52:10.668Z,998.47
2019-04-07T06:53:16.345Z,998.47
2019-04-07T06:54:12.233Z,998.46
2019-04-07T06:55:10.631Z,998.48
2019-04-07T06:56:11.066Z,998.47
2019-04-07T06:57:10.635Z,998.45
2019-04-07T06:58:11.165Z,998.51
2019-04-07T06:59:13.909Z,998.50
2019-04-07T07:00:10.634Z,998.51
2019-04-07T07:01:11.109Z,998.51
2019-04-07T07:02:10.566Z,998.51
2019-04-07T07:03:10.603Z,998.52
2019-04-07T07:04:12.659Z,998.52
2019-04-07T07:05:12.737Z,998.53
2019-04-07T07:06:11.112Z,998.48
2019-04-07T07:07:10.505Z,998.51
2019-04-07T07:08:10.488Z,998.53
2019-04-07T07:09:12.954Z,998.48
2019-04-07T07:10:10.502Z,998.52
2019-04-07T07:11:10.607Z,998.48
2019-04-07T07:12:22.573Z,998.50
2019-04-07T07:14:35.480Z,998.52
2019-04-07T07:15:26.776Z,998.50
2019-04-07T07:16:25.178Z,998.52
2019-04-07T07:17:25.703Z,998.54
2019-04-07T07:18:25.127Z,998.54
2019-04-07T07:19:34.664Z,998.61
2019-04-07T07:20:27.573Z,998.57
2019-04-07T07:21:36.214Z,998.59
2019-04-07T07:22:26.792Z,998.57
2019-04-07T07:23:25.268Z,998.55
2019-04-07T07:24:26.354Z,998.55
2019-04-07T07:25:26.592Z,998.53
2019-04-07T07:26:25.364Z,998.53
2019-04-07T07:27:25.260Z,998.55
2019-04-07T07:28:25.042Z,998.53
2019-04-07T07:29:26.656Z,998.54
2019-04-07T07:30:25.024Z,998.54
2019-04-07T07:31:26.334Z,998.52
2019-04-07T07:32:24.974Z,998.54
2019-04-07T07:33:24.957Z,998.56
2019-04-07T07:34:24.989Z,998.54
2019-04-07T07:35:25.600Z,998.55
2019-04-07T07:36:24.936Z,998.59
2019-04-07T07:37:27.001Z,998.56
2019-04-07T07:38:27.001Z,998.55
2019-04-07T07:39:26.259Z,998.53
2019-04-07T07:40:25.405Z,998.55
2019-04-07T07:41:25.347Z,998.51
2019-04-07T07:42:25.658Z,998.59
2019-04-07T07:43:27.950Z,998.57
2019-04-07T07:44:24.904Z,998.58
2019-04-07T07:45:25.028Z,998.60
2019-04-07T07:46:24.821Z,998.56
2019-04-07T07:47:25.398Z,998.54
2019-04-07T07:48:27.026Z,998.58
2019-04-07T07:49:24.805Z,998.55
2019-04-07T07:50:25.373Z,998.52
2019-04-07T07:51:24.847Z,998.54
2019-04-07T07:52:25.480Z,998.52
2019-04-07T07:53:27.066Z,998.56
2019-04-07T07:54:27.692Z,998.56
2019-04-07T07:55:25.269Z,998.53
2019-04-07T07:56:24.725Z,998.53
2019-04-07T07:57:24.978Z,998.54
2019-04-07T07:58:27.952Z,998.54
2019-04-07T07:59:24.991Z,998.52
2019-04-07T08:00:24.649Z,998.50
2019-04-07T08:01:24.647Z,998.53
2019-04-07T08:02:24.646Z,998.49
2019-04-07T08:03:24.893Z,998.54
2019-04-07T08:04:26.423Z,998.58
2019-04-07T08:05:24.818Z,998.49
2019-04-07T08:06:25.049Z,998.54
2019-04-07T08:07:24.738Z,998.57
2019-04-07T08:08:25.218Z,998.59
2019-04-07T08:09:26.002Z,998.60
2019-04-07T08:10:25.358Z,998.66
2019-04-07T08:11:25.037Z,998.63
2019-04-07T08:12:25.430Z,998.62
2019-04-07T08:13:24.822Z,998.64
2019-04-07T08:14:24.485Z,998.64
2019-04-07T08:15:29.712Z,998.62
2019-04-07T08:16:29.462Z,998.66
2019-04-07T08:17:25.951Z,998.63
2019-04-07T08:18:25.028Z,998.61
2019-04-07T08:19:29.189Z,998.66
2019-04-07T08:20:25.423Z,998.68
2019-04-07T08:21:24.732Z,998.67
2019-04-07T08:22:30.691Z,998.64
2019-04-07T08:23:26.243Z,998.66
2019-04-07T08:24:24.376Z,998.65
2019-04-07T08:25:25.043Z,998.66
2019-04-07T08:26:25.190Z,998.69
2019-04-07T08:27:24.698Z,998.66
2019-04-07T08:28:24.375Z,998.68
2019-04-07T08:29:24.322Z,998.70
2019-04-07T08:30:24.961Z,998.67
2019-04-07T08:31:25.024Z,998.69
2019-04-07T08:32:26.920Z,998.73
2019-04-07T08:33:24.810Z,998.70
2019-04-07T08:34:24.358Z,998.72
2019-04-07T08:35:24.359Z,998.71
2019-04-07T08:36:24.822Z,998.70
2019-04-07T08:37:24.236Z,998.67
2019-04-07T08:38:26.768Z,998.66
2019-04-07T08:39:26.616Z,998.73
2019-04-07T08:40:24.259Z,998.69
2019-04-07T08:41:24.508Z,998.70
2019-04-07T08:42:25.182Z,998.73
2019-04-07T08:43:24.780Z,998.65
2019-04-07T08:44:26.940Z,998.68
2019-04-07T08:45:24.146Z,998.71
2019-04-07T08:46:24.182Z,998.72
2019-04-07T08:47:24.634Z,998.70
2019-04-07T08:48:24.120Z,998.68
2019-04-07T08:49:25.383Z,998.70
2019-04-07T08:50:27.641Z,998.69
2019-04-07T08:51:24.222Z,998.77
2019-04-07T08:52:24.067Z,998.73
2019-04-07T08:53:24.085Z,998.70
2019-04-07T08:54:33.059Z,998.73
2019-04-07T08:55:24.066Z,998.68
2019-04-07T08:56:26.461Z,998.73
2019-04-07T08:57:27.221Z,998.65
2019-04-07T08:58:28.622Z,998.71
2019-04-07T08:59:24.987Z,998.70
2019-04-07T09:00:23.986Z,998.70
2019-04-07T09:01:23.973Z,998.66
2019-04-07T09:02:27.473Z,998.68
2019-04-07T09:03:23.954Z,998.66
2019-04-07T09:04:24.164Z,998.69
2019-04-07T09:05:27.649Z,998.67
2019-04-07T09:06:25.548Z,998.67
2019-04-07T09:07:24.641Z,998.67
2019-04-07T09:08:24.098Z,998.63
2019-04-07T09:09:32.774Z,998.65
2019-04-07T09:10:24.871Z,998.60
2019-04-07T09:11:23.983Z,998.63
2019-04-07T09:12:27.452Z,998.59
2019-04-07T09:13:25.143Z,998.68
2019-04-07T09:14:24.023Z,998.72
2019-04-07T09:15:32.874Z,998.70
2019-04-07T09:16:23.804Z,998.67
2019-04-07T09:17:32.281Z,998.70
2019-04-07T09:18:24.788Z,998.69
2019-04-07T09:19:23.814Z,998.70
2019-04-07T09:20:23.811Z,998.66
2019-04-07T09:21:35.523Z,998.68
2019-04-07T09:22:25.292Z,998.72
2019-04-07T09:23:26.402Z,998.70
2019-04-07T09:24:24.950Z,998.67
2019-04-07T09:25:23.839Z,998.71
2019-04-07T09:26:23.870Z,998.68
2019-04-07T09:27:24.648Z,998.77
2019-04-07T09:28:24.099Z,998.68
2019-04-07T09:29:26.068Z,998.77
2019-04-07T09:30:23.708Z,998.76
2019-04-07T09:31:23.639Z,998.70
2019-04-07T09:32:23.781Z,998.75
2019-04-07T09:33:24.242Z,998.75
2019-04-07T09:34:23.612Z,998.69
2019-04-07T09:35:25.730Z,998.72
2019-04-07T09:36:24.463Z,998.70
2019-04-07T09:37:25.166Z,998.69
2019-04-07T09:38:24.942Z,998.70
2019-04-07T09:39:23.665Z,998.77
2019-04-07T09:40:23.599Z,998.67
2019-04-07T09:41:27.396Z,998.73
2019-04-07T09:42:25.683Z,998.74
2019-04-07T09:43:23.502Z,998.70
2019-04-07T09:44:23.497Z,998.75
2019-04-07T09:45:23.977Z,998.71
2019-04-07T09:46:24.303Z,998.70
2019-04-07T09:47:23.701Z,998.77
2019-04-07T09:48:24.022Z,998.77
2019-04-07T09:49:24.501Z,998.75
2019-04-07T09:50:26.890Z,998.82
2019-04-07T09:51:23.420Z,998.76
2019-04-07T09:52:23.448Z,998.72
2019-04-07T09:53:23.391Z,998.73
2019-04-07T09:54:23.544Z,998.79
2019-04-07T09:55:26.402Z,998.74
2019-04-07T09:56:24.014Z,998.76
2019-04-07T09:57:23.601Z,998.73
2019-04-07T09:58:23.958Z,998.79
2019-04-07T09:59:23.957Z,998.70
2019-04-07T10:00:24.027Z,998.69
2019-04-07T10:01:25.430Z,998.76
2019-04-07T10:02:23.985Z,998.77
2019-04-07T10:03:23.291Z,998.69
2019-04-07T10:04:23.286Z,998.73
2019-04-07T10:05:23.270Z,998.73
2019-04-07T10:06:23.246Z,998.72
2019-04-07T10:07:23.997Z,998.82
2019-04-07T10:08:23.785Z,998.74
2019-04-07T10:09:23.237Z,998.66
2019-04-07T10:10:23.758Z,998.66
2019-04-07T10:11:23.192Z,998.67
2019-04-07T10:12:23.282Z,998.72
2019-04-07T10:13:23.995Z,998.70
2019-04-07T10:14:23.773Z,998.65
2019-04-07T10:15:23.167Z,998.66
2019-04-07T10:16:23.136Z,998.70
2019-04-07T10:17:23.302Z,998.70
2019-04-07T10:18:23.984Z,998.68
2019-04-07T10:19:23.150Z,998.66
2019-04-07T10:20:23.990Z,998.66
2019-04-07T10:21:23.087Z,998.67
2019-04-07T10:22:23.067Z,998.60
2019-04-07T10:23:23.187Z,998.66
2019-04-07T10:24:23.523Z,998.63
2019-04-07T10:25:25.221Z,998.63
2019-04-07T10:26:23.062Z,998.63
2019-04-07T10:27:23.028Z,998.60
2019-04-07T10:28:23.396Z,998.62
2019-04-07T10:29:23.099Z,998.61
2019-04-07T10:30:24.206Z,998.62
2019-04-07T10:31:23.574Z,998.61
2019-04-07T10:32:24.750Z,998.61
2019-04-07T10:33:23.718Z,998.64
2019-04-07T10:34:23.661Z,998.60
2019-04-07T10:35:23.580Z,998.65
2019-04-07T10:36:22.919Z,998.67
2019-04-07T10:37:22.911Z,998.59
2019-04-07T10:38:22.911Z,998.59
2019-04-07T10:39:23.020Z,998.56
2019-04-07T10:40:23.374Z,998.65
2019-04-07T10:41:22.879Z,998.65
2019-04-07T10:42:23.565Z,998.49
2019-04-07T10:43:22.918Z,998.59
2019-04-07T10:44:22.822Z,998.58
2019-04-07T10:45:22.951Z,998.60
2019-04-07T10:46:22.876Z,998.50
2019-04-07T10:47:23.501Z,998.57
2019-04-07T10:48:24.526Z,998.57
2019-04-07T10:49:22.767Z,998.56
2019-04-07T10:50:22.757Z,998.52
2019-04-07T10:51:23.054Z,998.57
2019-04-07T10:52:23.516Z,998.59
2019-04-07T10:53:22.831Z,998.54
2019-04-07T10:54:23.403Z,998.51
2019-04-07T10:55:22.695Z,998.56
2019-04-07T10:56:22.720Z,998.46
2019-04-07T10:57:23.157Z,998.50
2019-04-07T10:58:23.040Z,998.53
2019-04-07T10:59:22.679Z,998.52
2019-04-07T11:00:22.648Z,998.51
2019-04-07T11:01:22.632Z,998.48
2019-04-07T11:02:22.697Z,998.48
2019-04-07T11:03:23.019Z,998.52
2019-04-07T11:04:23.019Z,998.49
2019-04-07T11:05:22.867Z,998.51
2019-04-07T11:06:22.792Z,998.51
2019-04-07T11:07:22.606Z,998.49
2019-04-07T11:08:23.284Z,998.52
2019-04-07T11:09:23.405Z,998.45
2019-04-07T11:10:33.014Z,998.41
2019-04-07T11:11:23.529Z,998.47
2019-04-07T11:12:23.235Z,998.47
2019-04-07T11:13:23.191Z,998.49
2019-04-07T11:14:22.932Z,998.48
2019-04-07T11:15:22.484Z,998.55
2019-04-07T11:16:22.462Z,998.47
2019-04-07T11:17:22.597Z,998.38
2019-04-07T11:18:22.699Z,998.45
2019-04-07T11:19:23.181Z,998.45
2019-04-07T11:20:22.430Z,998.41
2019-04-07T11:21:22.569Z,998.48
2019-04-07T11:22:22.406Z,998.44
2019-04-07T11:23:22.965Z,998.43
2019-04-07T11:24:22.369Z,998.44
2019-04-07T11:25:22.823Z,998.44
2019-04-07T11:26:23.552Z,998.43
2019-04-07T11:27:22.353Z,998.42
2019-04-07T11:28:22.600Z,998.37
2019-04-07T11:29:22.899Z,998.38
2019-04-07T11:30:22.501Z,998.38
2019-04-07T11:31:23.159Z,998.39
2019-04-07T11:32:22.864Z,998.38
2019-04-07T11:33:22.542Z,998.42
2019-04-07T11:34:22.685Z,998.43
2019-04-07T11:35:22.278Z,998.39
2019-04-07T11:36:23.472Z,998.36
2019-04-07T11:37:22.254Z,998.32
2019-04-07T11:38:22.214Z,998.41
2019-04-07T11:39:22.216Z,998.32
2019-04-07T11:40:22.638Z,998.30
2019-04-07T11:41:25.480Z,998.38
2019-04-07T11:42:23.983Z,998.34
2019-04-07T11:43:22.758Z,998.34
2019-04-07T11:44:22.888Z,998.38
2019-04-07T11:45:22.713Z,998.33
2019-04-07T11:46:22.124Z,998.42
2019-04-07T11:47:23.121Z,998.40
2019-04-07T11:48:22.134Z,998.34
2019-04-07T11:49:22.950Z,998.31
2019-04-07T11:50:22.337Z,998.32
2019-04-07T11:51:22.702Z,998.28
2019-04-07T11:52:22.439Z,998.33
2019-04-07T11:53:22.050Z,998.27
2019-04-07T11:54:22.033Z,998.24
2019-04-07T11:55:22.920Z,998.32
2019-04-07T11:56:22.818Z,998.28
2019-04-07T11:57:22.586Z,998.32
2019-04-07T11:58:27.324Z,998.28
2019-04-07T11:59:23.894Z,998.32
2019-04-07T12:00:21.981Z,998.38
2019-04-07T12:01:22.851Z,998.30
2019-04-07T12:02:22.806Z,998.34
2019-04-07T12:03:24.702Z,998.32
2019-04-07T12:04:22.919Z,998.30
2019-04-07T12:05:22.381Z,998.32
2019-04-07T12:06:24.154Z,998.34
2019-04-07T12:07:22.056Z,998.32
2019-04-07T12:08:24.487Z,998.29
2019-04-07T12:09:22.284Z,998.32
2019-04-07T12:10:22.489Z,998.32
2019-04-07T12:11:22.226Z,998.28
2019-04-07T12:12:22.821Z,998.36
2019-04-07T12:13:22.248Z,998.37
2019-04-07T12:14:21.804Z,998.32
2019-04-07T12:15:25.627Z,998.36
2019-04-07T12:16:22.014Z,998.34
2019-04-07T12:17:21.769Z,998.32
2019-04-07T12:18:21.760Z,998.30
2019-04-07T12:19:23.831Z,998.23
2019-04-07T12:20:22.668Z,998.25
2019-04-07T12:21:23.241Z,998.25
2019-04-07T12:22:21.743Z,998.33
2019-04-07T12:23:24.190Z,998.30
2019-04-07T12:24:25.932Z,998.27
2019-04-07T12:25:23.328Z,998.23
2019-04-07T12:26:22.416Z,998.26
2019-04-07T12:27:22.476Z,998.29
2019-04-07T12:28:21.646Z,998.26
2019-04-07T12:29:22.259Z,998.23